sensor_id;sensor_type;location;lat;lon;timestamp;pressure;altitude;pressure_sealevel;temperature;humidity
74327;BME280;62745;51.060;13.786;2022-12-10T00:01:28;99344.00;;;1.92;85.57
74327;BME280;62745;51.060;13.786;2022-12-10T00:03:54;99362.75;;;1.89;85.59
74327;BME280;62745;51.060;13.786;2022-12-10T00:06:22;99357.50;;;1.89;85.52
74327;BME280;62745;51.060;13.786;2022-12-10T00:08:48;99359.75;;;1.84;86.00
74327;BME280;62745;51.060;13.786;2022-12-10T00:11:16;99357.13;;;1.84;86.36
74327;BME280;62745;51.060;13.786;2022-12-10T00:13:43;99353.81;;;1.82;86.06
74327;BME280;62745;51.060;13.786;2022-12-10T00:16:10;99350.31;;;2.16;85.51
74327;BME280;62745;51.060;13.786;2022-12-10T00:18:37;99342.38;;;1.99;84.34
74327;BME280;62745;51.060;13.786;2022-12-10T00:21:08;99351.91;;;1.92;85.85
74327;BME280;62745;51.060;13.786;2022-12-10T00:23:34;99349.53;;;1.81;85.87
74327;BME280;62745;51.060;13.786;2022-12-10T00:26:04;99351.31;;;2.06;85.47
74327;BME280;62745;51.060;13.786;2022-12-10T00:28:30;99348.44;;;1.92;86.02
74327;BME280;62745;51.060;13.786;2022-12-10T00:31:02;99358.69;;;2.03;86.06
74327;BME280;62745;51.060;13.786;2022-12-10T00:33:28;99361.78;;;1.90;85.86
74327;BME280;62745;51.060;13.786;2022-12-10T00:35:53;99359.03;;;2.08;85.47
74327;BME280;62745;51.060;13.786;2022-12-10T00:38:19;99364.03;;;2.19;85.12
74327;BME280;62745;51.060;13.786;2022-12-10T00:40:44;99356.72;;;2.05;85.33
74327;BME280;62745;51.060;13.786;2022-12-10T00:43:09;99352.75;;;2.01;85.11
74327;BME280;62745;51.060;13.786;2022-12-10T00:45:35;99358.31;;;1.90;86.26
74327;BME280;62745;51.060;13.786;2022-12-10T00:48:00;99355.38;;;2.01;85.07
74327;BME280;62745;51.060;13.786;2022-12-10T00:50:25;99360.25;;;2.22;85.07
74327;BME280;62745;51.060;13.786;2022-12-10T00:52:50;99369.44;;;2.18;84.85
74327;BME280;62745;51.060;13.786;2022-12-10T00:55:16;99369.84;;;2.39;84.75
74327;BME280;62745;51.060;13.786;2022-12-10T00:57:42;99365.34;;;2.31;84.62
74327;BME280;62745;51.060;13.786;2022-12-10T01:00:07;99365.56;;;1.88;85.74
74327;BME280;62745;51.060;13.786;2022-12-10T01:02:33;99362.13;;;1.95;85.87
74327;BME280;62745;51.060;13.786;2022-12-10T01:04:58;99354.84;;;2.39;83.97
74327;BME280;62745;51.060;13.786;2022-12-10T01:07:23;99361.94;;;2.39;83.84
74327;BME280;62745;51.060;13.786;2022-12-10T01:09:49;99359.47;;;2.37;83.53
74327;BME280;62745;51.060;13.786;2022-12-10T01:12:14;99368.75;;;2.16;84.94
74327;BME280;62745;51.060;13.786;2022-12-10T01:14:39;99365.03;;;2.34;84.24
74327;BME280;62745;51.060;13.786;2022-12-10T01:17:05;99363.50;;;2.16;84.55
74327;BME280;62745;51.060;13.786;2022-12-10T01:19:33;99366.00;;;2.25;84.03
74327;BME280;62745;51.060;13.786;2022-12-10T01:21:58;99370.41;;;2.08;84.34
74327;BME280;62745;51.060;13.786;2022-12-10T01:24:26;99373.31;;;1.97;84.86
74327;BME280;62745;51.060;13.786;2022-12-10T01:26:52;99372.84;;;1.68;85.66
74327;BME280;62745;51.060;13.786;2022-12-10T01:29:18;99373.22;;;1.73;86.37
74327;BME280;62745;51.060;13.786;2022-12-10T01:31:44;99373.47;;;1.62;86.68
74327;BME280;62745;51.060;13.786;2022-12-10T01:34:11;99377.59;;;1.64;85.67
74327;BME280;62745;51.060;13.786;2022-12-10T01:36:40;99375.28;;;1.61;85.82
74327;BME280;62745;51.060;13.786;2022-12-10T01:39:08;99382.25;;;1.70;85.84
74327;BME280;62745;51.060;13.786;2022-12-10T01:41:36;99382.31;;;1.53;86.17
74327;BME280;62745;51.060;13.786;2022-12-10T01:46:32;99389.59;;;1.59;86.42
74327;BME280;62745;51.060;13.786;2022-12-10T01:48:59;99392.16;;;1.50;86.71
74327;BME280;62745;51.060;13.786;2022-12-10T01:51:28;99393.06;;;1.67;86.25
74327;BME280;62745;51.060;13.786;2022-12-10T01:53:54;99383.66;;;1.57;86.37
74327;BME280;62745;51.060;13.786;2022-12-10T01:56:20;99389.34;;;1.70;86.58
74327;BME280;62745;51.060;13.786;2022-12-10T01:58:48;99387.44;;;1.54;86.92
74327;BME280;62745;51.060;13.786;2022-12-10T02:01:31;99379.97;;;1.49;86.97
74327;BME280;62745;51.060;13.786;2022-12-10T02:07:11;99375.00;;;1.38;87.74
74327;BME280;62745;51.060;13.786;2022-12-10T02:12:37;99382.47;;;1.25;87.98
74327;BME280;62745;51.060;13.786;2022-12-10T02:15:11;99378.31;;;1.74;86.81
74327;BME280;62745;51.060;13.786;2022-12-10T02:17:49;99373.53;;;1.70;86.39
74327;BME280;62745;51.060;13.786;2022-12-10T02:20:40;99377.56;;;1.56;86.48
74327;BME280;62745;51.060;13.786;2022-12-10T02:23:10;99378.25;;;1.66;86.42
74327;BME280;62745;51.060;13.786;2022-12-10T02:25:48;99373.72;;;1.76;86.44
74327;BME280;62745;51.060;13.786;2022-12-10T02:28:25;99377.81;;;1.71;86.70
74327;BME280;62745;51.060;13.786;2022-12-10T02:30:54;99372.97;;;1.58;86.34
74327;BME280;62745;51.060;13.786;2022-12-10T02:33:23;99366.97;;;1.74;85.62
74327;BME280;62745;51.060;13.786;2022-12-10T02:35:50;99363.59;;;1.56;86.04
74327;BME280;62745;51.060;13.786;2022-12-10T02:38:24;99375.09;;;1.55;86.53
74327;BME280;62745;51.060;13.786;2022-12-10T02:40:55;99368.44;;;1.68;87.29
74327;BME280;62745;51.060;13.786;2022-12-10T02:43:23;99375.50;;;1.42;86.51
74327;BME280;62745;51.060;13.786;2022-12-10T02:45:50;99377.88;;;1.53;87.12
74327;BME280;62745;51.060;13.786;2022-12-10T02:48:16;99370.91;;;1.70;86.48
74327;BME280;62745;51.060;13.786;2022-12-10T02:50:43;99367.72;;;1.66;86.35
74327;BME280;62745;51.060;13.786;2022-12-10T02:53:08;99367.25;;;2.05;84.18
74327;BME280;62745;51.060;13.786;2022-12-10T02:56:09;99373.56;;;1.78;85.09
74327;BME280;62745;51.060;13.786;2022-12-10T02:59:01;99372.31;;;1.56;85.32
74327;BME280;62745;51.060;13.786;2022-12-10T03:07:28;99374.63;;;1.93;84.14
74327;BME280;62745;51.060;13.786;2022-12-10T03:10:11;99377.25;;;1.93;83.99
74327;BME280;62745;51.060;13.786;2022-12-10T03:12:43;99383.94;;;1.79;84.80
74327;BME280;62745;51.060;13.786;2022-12-10T03:15:12;99391.47;;;2.08;83.54
74327;BME280;62745;51.060;13.786;2022-12-10T03:17:41;99390.22;;;2.21;83.83
74327;BME280;62745;51.060;13.786;2022-12-10T03:20:11;99390.81;;;2.15;82.89
74327;BME280;62745;51.060;13.786;2022-12-10T03:22:40;99389.84;;;2.16;82.97
74327;BME280;62745;51.060;13.786;2022-12-10T03:25:10;99398.44;;;2.26;82.78
74327;BME280;62745;51.060;13.786;2022-12-10T03:27:39;99373.63;;;2.45;81.06
74327;BME280;62745;51.060;13.786;2022-12-10T03:30:07;99385.19;;;2.68;81.09
74327;BME280;62745;51.060;13.786;2022-12-10T03:32:33;99387.84;;;2.76;81.06
74327;BME280;62745;51.060;13.786;2022-12-10T03:34:59;99394.88;;;2.51;81.80
74327;BME280;62745;51.060;13.786;2022-12-10T03:37:27;99382.53;;;2.44;82.43
74327;BME280;62745;51.060;13.786;2022-12-10T03:39:54;99398.53;;;2.66;81.26
74327;BME280;62745;51.060;13.786;2022-12-10T03:42:19;99404.47;;;2.52;81.02
74327;BME280;62745;51.060;13.786;2022-12-10T03:44:45;99399.56;;;2.74;80.13
74327;BME280;62745;51.060;13.786;2022-12-10T03:47:13;99396.44;;;2.70;80.40
74327;BME280;62745;51.060;13.786;2022-12-10T03:49:40;99392.28;;;2.67;80.52
74327;BME280;62745;51.060;13.786;2022-12-10T03:52:05;99396.69;;;2.51;81.24
74327;BME280;62745;51.060;13.786;2022-12-10T03:54:31;99391.03;;;2.21;82.15
74327;BME280;62745;51.060;13.786;2022-12-10T03:56:56;99395.50;;;1.87;82.88
74327;BME280;62745;51.060;13.786;2022-12-10T03:59:21;99391.66;;;1.81;84.02
74327;BME280;62745;51.060;13.786;2022-12-10T04:01:47;99392.56;;;1.98;83.35
74327;BME280;62745;51.060;13.786;2022-12-10T04:04:12;99400.28;;;1.57;84.80
74327;BME280;62745;51.060;13.786;2022-12-10T04:06:39;99393.22;;;1.66;84.48
74327;BME280;62745;51.060;13.786;2022-12-10T04:09:06;99392.97;;;1.51;85.54
74327;BME280;62745;51.060;13.786;2022-12-10T04:11:31;99387.03;;;1.49;84.79
74327;BME280;62745;51.060;13.786;2022-12-10T04:13:57;99397.69;;;1.65;85.30
74327;BME280;62745;51.060;13.786;2022-12-10T04:16:40;99396.84;;;1.65;85.80
74327;BME280;62745;51.060;13.786;2022-12-10T04:19:11;99392.16;;;1.50;85.15
74327;BME280;62745;51.060;13.786;2022-12-10T04:21:38;99394.50;;;1.54;85.81
74327;BME280;62745;51.060;13.786;2022-12-10T04:24:24;99394.59;;;1.70;86.26
74327;BME280;62745;51.060;13.786;2022-12-10T04:27:18;99400.16;;;1.41;85.47
74327;BME280;62745;51.060;13.786;2022-12-10T04:29:44;99392.94;;;1.43;87.07
74327;BME280;62745;51.060;13.786;2022-12-10T04:32:09;99393.25;;;1.40;86.39
74327;BME280;62745;51.060;13.786;2022-12-10T04:34:35;99393.03;;;1.33;86.45
74327;BME280;62745;51.060;13.786;2022-12-10T04:37:02;99381.94;;;1.47;86.15
74327;BME280;62745;51.060;13.786;2022-12-10T04:39:28;99385.78;;;1.53;86.02
74327;BME280;62745;51.060;13.786;2022-12-10T04:41:53;99384.50;;;1.65;86.11
74327;BME280;62745;51.060;13.786;2022-12-10T04:44:19;99395.13;;;1.81;86.44
74327;BME280;62745;51.060;13.786;2022-12-10T04:46:45;99396.75;;;1.74;86.20
74327;BME280;62745;51.060;13.786;2022-12-10T04:49:10;99391.91;;;1.62;85.83
74327;BME280;62745;51.060;13.786;2022-12-10T04:51:36;99389.63;;;1.67;85.87
74327;BME280;62745;51.060;13.786;2022-12-10T04:54:02;99389.50;;;2.02;85.10
74327;BME280;62745;51.060;13.786;2022-12-10T04:56:28;99389.00;;;2.07;84.74
74327;BME280;62745;51.060;13.786;2022-12-10T04:58:58;99386.53;;;2.05;83.99
74327;BME280;62745;51.060;13.786;2022-12-10T05:01:23;99377.25;;;2.35;84.35
74327;BME280;62745;51.060;13.786;2022-12-10T05:03:50;99382.38;;;2.53;82.69
74327;BME280;62745;51.060;13.786;2022-12-10T05:06:16;99382.47;;;2.27;84.04
74327;BME280;62745;51.060;13.786;2022-12-10T05:08:43;99371.00;;;2.36;83.50
74327;BME280;62745;51.060;13.786;2022-12-10T05:11:14;99375.09;;;2.39;83.34
74327;BME280;62745;51.060;13.786;2022-12-10T05:13:40;99378.16;;;2.10;84.57
74327;BME280;62745;51.060;13.786;2022-12-10T05:16:08;99381.53;;;1.94;85.51
74327;BME280;62745;51.060;13.786;2022-12-10T05:18:34;99376.84;;;2.14;84.31
74327;BME280;62745;51.060;13.786;2022-12-10T05:21:01;99370.34;;;2.00;84.88
74327;BME280;62745;51.060;13.786;2022-12-10T05:23:26;99377.81;;;2.05;85.68
74327;BME280;62745;51.060;13.786;2022-12-10T05:26:06;99380.44;;;2.05;84.95
74327;BME280;62745;51.060;13.786;2022-12-10T05:28:38;99375.50;;;2.10;84.10
74327;BME280;62745;51.060;13.786;2022-12-10T05:31:04;99379.84;;;2.19;84.19
74327;BME280;62745;51.060;13.786;2022-12-10T05:33:30;99385.22;;;2.09;84.75
74327;BME280;62745;51.060;13.786;2022-12-10T05:35:58;99379.94;;;2.09;85.21
74327;BME280;62745;51.060;13.786;2022-12-10T05:38:24;99392.22;;;1.93;85.56
74327;BME280;62745;51.060;13.786;2022-12-10T05:40:50;99393.22;;;2.00;85.20
74327;BME280;62745;51.060;13.786;2022-12-10T05:43:15;99393.81;;;1.77;85.75
74327;BME280;62745;51.060;13.786;2022-12-10T05:45:41;99394.94;;;1.75;86.75
74327;BME280;62745;51.060;13.786;2022-12-10T05:48:06;99395.84;;;1.58;87.32
74327;BME280;62745;51.060;13.786;2022-12-10T05:50:33;99403.50;;;1.77;87.20
74327;BME280;62745;51.060;13.786;2022-12-10T05:52:58;99397.66;;;1.91;85.37
74327;BME280;62745;51.060;13.786;2022-12-10T05:55:24;99396.78;;;1.83;86.73
74327;BME280;62745;51.060;13.786;2022-12-10T05:57:50;99390.50;;;2.09;86.10
74327;BME280;62745;51.060;13.786;2022-12-10T06:00:15;99398.28;;;1.85;85.66
74327;BME280;62745;51.060;13.786;2022-12-10T06:02:40;99394.66;;;1.52;86.95
74327;BME280;62745;51.060;13.786;2022-12-10T06:05:06;99407.84;;;1.34;87.46
74327;BME280;62745;51.060;13.786;2022-12-10T06:07:31;99405.06;;;1.88;86.36
74327;BME280;62745;51.060;13.786;2022-12-10T06:09:56;99394.28;;;1.73;86.58
74327;BME280;62745;51.060;13.786;2022-12-10T06:12:22;99398.81;;;1.89;87.02
74327;BME280;62745;51.060;13.786;2022-12-10T06:14:47;99411.81;;;1.90;86.58
74327;BME280;62745;51.060;13.786;2022-12-10T06:17:13;99404.59;;;1.66;86.72
74327;BME280;62745;51.060;13.786;2022-12-10T06:19:38;99414.25;;;1.58;87.96
74327;BME280;62745;51.060;13.786;2022-12-10T06:22:03;99398.97;;;1.61;86.74
74327;BME280;62745;51.060;13.786;2022-12-10T06:24:29;99405.63;;;1.73;86.79
74327;BME280;62745;51.060;13.786;2022-12-10T06:26:54;99413.03;;;1.70;86.58
74327;BME280;62745;51.060;13.786;2022-12-10T06:29:19;99416.66;;;1.77;88.15
74327;BME280;62745;51.060;13.786;2022-12-10T06:31:45;99416.91;;;1.92;86.78
74327;BME280;62745;51.060;13.786;2022-12-10T06:34:10;99419.13;;;2.04;85.38
74327;BME280;62745;51.060;13.786;2022-12-10T06:36:35;99427.75;;;2.23;84.10
74327;BME280;62745;51.060;13.786;2022-12-10T06:39:01;99425.31;;;1.95;85.43
74327;BME280;62745;51.060;13.786;2022-12-10T06:41:27;99428.00;;;2.03;84.14
74327;BME280;62745;51.060;13.786;2022-12-10T06:43:52;99431.28;;;1.71;86.00
74327;BME280;62745;51.060;13.786;2022-12-10T06:46:19;99426.28;;;1.86;85.70
74327;BME280;62745;51.060;13.786;2022-12-10T06:48:46;99425.13;;;1.63;86.37
74327;BME280;62745;51.060;13.786;2022-12-10T06:51:12;99439.31;;;1.96;85.46
74327;BME280;62745;51.060;13.786;2022-12-10T06:53:39;99435.28;;;2.09;85.59
74327;BME280;62745;51.060;13.786;2022-12-10T06:56:05;99442.78;;;1.96;85.41
74327;BME280;62745;51.060;13.786;2022-12-10T06:58:32;99440.44;;;1.85;85.35
74327;BME280;62745;51.060;13.786;2022-12-10T07:01:07;99440.19;;;1.70;86.06
74327;BME280;62745;51.060;13.786;2022-12-10T07:03:34;99442.44;;;1.91;86.68
74327;BME280;62745;51.060;13.786;2022-12-10T07:06:00;99441.75;;;1.89;86.00
74327;BME280;62745;51.060;13.786;2022-12-10T07:08:26;99442.13;;;1.68;85.99
74327;BME280;62745;51.060;13.786;2022-12-10T07:10:51;99444.16;;;1.74;86.29
74327;BME280;62745;51.060;13.786;2022-12-10T07:13:17;99443.38;;;1.56;86.58
74327;BME280;62745;51.060;13.786;2022-12-10T07:15:42;99447.50;;;1.59;87.40
74327;BME280;62745;51.060;13.786;2022-12-10T07:18:07;99454.16;;;1.71;86.43
74327;BME280;62745;51.060;13.786;2022-12-10T07:20:33;99442.44;;;1.91;85.03
74327;BME280;62745;51.060;13.786;2022-12-10T07:22:58;99443.16;;;1.75;86.96
74327;BME280;62745;51.060;13.786;2022-12-10T07:25:24;99443.66;;;1.79;86.70
74327;BME280;62745;51.060;13.786;2022-12-10T07:27:49;99451.56;;;1.79;86.84
74327;BME280;62745;51.060;13.786;2022-12-10T07:30:14;99453.53;;;1.77;86.83
74327;BME280;62745;51.060;13.786;2022-12-10T07:32:40;99456.00;;;2.04;85.72
74327;BME280;62745;51.060;13.786;2022-12-10T07:35:05;99453.78;;;1.92;86.51
74327;BME280;62745;51.060;13.786;2022-12-10T07:37:30;99451.56;;;2.05;86.19
74327;BME280;62745;51.060;13.786;2022-12-10T07:39:56;99456.44;;;2.00;85.78
74327;BME280;62745;51.060;13.786;2022-12-10T07:42:21;99459.31;;;2.15;86.38
74327;BME280;62745;51.060;13.786;2022-12-10T07:44:48;99445.28;;;2.40;82.98
74327;BME280;62745;51.060;13.786;2022-12-10T07:47:13;99458.72;;;2.29;83.48
74327;BME280;62745;51.060;13.786;2022-12-10T07:49:39;99449.28;;;2.10;85.37
74327;BME280;62745;51.060;13.786;2022-12-10T07:52:04;99460.72;;;2.35;83.79
74327;BME280;62745;51.060;13.786;2022-12-10T07:54:29;99461.44;;;2.03;85.66
74327;BME280;62745;51.060;13.786;2022-12-10T07:56:54;99461.88;;;1.98;84.64
74327;BME280;62745;51.060;13.786;2022-12-10T07:59:20;99460.59;;;1.76;86.37
74327;BME280;62745;51.060;13.786;2022-12-10T08:01:45;99457.16;;;2.02;86.27
74327;BME280;62745;51.060;13.786;2022-12-10T08:04:10;99440.34;;;2.03;86.19
74327;BME280;62745;51.060;13.786;2022-12-10T08:06:36;99451.63;;;2.21;85.76
74327;BME280;62745;51.060;13.786;2022-12-10T08:09:01;99456.94;;;1.95;85.63
74327;BME280;62745;51.060;13.786;2022-12-10T08:11:27;99466.22;;;2.07;86.83
74327;BME280;62745;51.060;13.786;2022-12-10T08:13:53;99468.13;;;2.31;85.22
74327;BME280;62745;51.060;13.786;2022-12-10T08:16:21;99468.91;;;1.90;86.17
74327;BME280;62745;51.060;13.786;2022-12-10T08:18:55;99466.81;;;2.01;85.74
74327;BME280;62745;51.060;13.786;2022-12-10T08:21:23;99465.03;;;2.02;86.24
74327;BME280;62745;51.060;13.786;2022-12-10T08:23:49;99469.44;;;1.93;85.67
74327;BME280;62745;51.060;13.786;2022-12-10T08:26:20;99474.78;;;1.84;86.82
74327;BME280;62745;51.060;13.786;2022-12-10T08:28:47;99472.22;;;1.92;86.93
74327;BME280;62745;51.060;13.786;2022-12-10T08:31:14;99474.09;;;1.73;86.60
74327;BME280;62745;51.060;13.786;2022-12-10T08:33:40;99472.25;;;2.00;87.59
74327;BME280;62745;51.060;13.786;2022-12-10T08:36:07;99473.59;;;2.38;85.55
74327;BME280;62745;51.060;13.786;2022-12-10T08:38:33;99472.16;;;2.09;85.41
74327;BME280;62745;51.060;13.786;2022-12-10T08:40:59;99476.00;;;1.89;85.85
74327;BME280;62745;51.060;13.786;2022-12-10T08:43:24;99478.50;;;2.25;85.40
74327;BME280;62745;51.060;13.786;2022-12-10T08:45:50;99479.94;;;2.19;86.58
74327;BME280;62745;51.060;13.786;2022-12-10T08:48:15;99479.31;;;2.25;85.70
74327;BME280;62745;51.060;13.786;2022-12-10T08:50:40;99483.06;;;2.57;84.71
74327;BME280;62745;51.060;13.786;2022-12-10T08:53:06;99491.91;;;2.48;85.35
74327;BME280;62745;51.060;13.786;2022-12-10T08:55:31;99495.19;;;2.41;85.71
74327;BME280;62745;51.060;13.786;2022-12-10T08:57:57;99489.78;;;2.17;85.75
74327;BME280;62745;51.060;13.786;2022-12-10T09:00:24;99495.75;;;2.19;86.57
74327;BME280;62745;51.060;13.786;2022-12-10T09:02:49;99497.16;;;2.05;87.28
74327;BME280;62745;51.060;13.786;2022-12-10T09:05:15;99503.41;;;2.04;87.50
74327;BME280;62745;51.060;13.786;2022-12-10T09:07:40;99495.31;;;2.32;85.85
74327;BME280;62745;51.060;13.786;2022-12-10T09:10:06;99504.41;;;2.37;86.05
74327;BME280;62745;51.060;13.786;2022-12-10T09:12:33;99498.94;;;2.73;84.53
74327;BME280;62745;51.060;13.786;2022-12-10T09:14:58;99502.56;;;2.72;84.33
74327;BME280;62745;51.060;13.786;2022-12-10T09:17:24;99497.28;;;2.72;84.00
74327;BME280;62745;51.060;13.786;2022-12-10T09:19:49;99497.28;;;2.72;83.93
74327;BME280;62745;51.060;13.786;2022-12-10T09:22:14;99493.19;;;2.78;83.44
74327;BME280;62745;51.060;13.786;2022-12-10T09:24:39;99503.44;;;2.38;83.85
74327;BME280;62745;51.060;13.786;2022-12-10T09:27:05;99496.44;;;2.21;85.25
74327;BME280;62745;51.060;13.786;2022-12-10T09:29:30;99502.47;;;2.48;84.79
74327;BME280;62745;51.060;13.786;2022-12-10T09:31:55;99499.56;;;2.25;85.51
74327;BME280;62745;51.060;13.786;2022-12-10T09:34:21;99503.44;;;2.38;84.73
74327;BME280;62745;51.060;13.786;2022-12-10T09:36:46;99498.50;;;2.44;84.12
74327;BME280;62745;51.060;13.786;2022-12-10T09:39:12;99505.16;;;2.56;85.04
74327;BME280;62745;51.060;13.786;2022-12-10T09:47:17;99503.25;;;2.40;84.85
74327;BME280;62745;51.060;13.786;2022-12-10T09:52:18;99501.63;;;2.47;84.59
74327;BME280;62745;51.060;13.786;2022-12-10T09:54:49;99494.97;;;2.27;84.75
74327;BME280;62745;51.060;13.786;2022-12-10T09:57:21;99494.13;;;2.26;85.80
74327;BME280;62745;51.060;13.786;2022-12-10T09:59:49;99496.19;;;2.49;85.37
74327;BME280;62745;51.060;13.786;2022-12-10T10:02:31;99486.47;;;2.49;84.24
74327;BME280;62745;51.060;13.786;2022-12-10T10:05:12;99492.56;;;2.41;84.94
74327;BME280;62745;51.060;13.786;2022-12-10T10:07:43;99488.19;;;2.24;86.62
74327;BME280;62745;51.060;13.786;2022-12-10T10:12:47;99495.38;;;2.48;84.48
74327;BME280;62745;51.060;13.786;2022-12-10T10:15:18;99488.78;;;2.44;84.42
74327;BME280;62745;51.060;13.786;2022-12-10T10:17:47;99483.50;;;2.36;85.15
74327;BME280;62745;51.060;13.786;2022-12-10T10:20:15;99479.59;;;2.56;85.13
74327;BME280;62745;51.060;13.786;2022-12-10T10:22:40;99478.34;;;2.34;85.03
74327;BME280;62745;51.060;13.786;2022-12-10T10:25:16;99477.59;;;2.08;86.03
74327;BME280;62745;51.060;13.786;2022-12-10T10:27:42;99483.88;;;2.15;85.54
74327;BME280;62745;51.060;13.786;2022-12-10T10:30:15;99488.16;;;2.16;85.44
74327;BME280;62745;51.060;13.786;2022-12-10T10:35:09;99483.50;;;2.44;85.00
74327;BME280;62745;51.060;13.786;2022-12-10T10:37:44;99487.41;;;2.32;85.69
74327;BME280;62745;51.060;13.786;2022-12-10T10:42:47;99479.38;;;2.41;85.27
74327;BME280;62745;51.060;13.786;2022-12-10T10:48:26;99475.19;;;2.23;86.12
74327;BME280;62745;51.060;13.786;2022-12-10T10:51:07;99477.84;;;2.31;85.78
74327;BME280;62745;51.060;13.786;2022-12-10T10:53:39;99474.97;;;2.16;85.65
74327;BME280;62745;51.060;13.786;2022-12-10T10:56:11;99477.81;;;2.23;85.55
74327;BME280;62745;51.060;13.786;2022-12-10T10:58:53;99476.69;;;2.25;84.38
74327;BME280;62745;51.060;13.786;2022-12-10T11:01:20;99475.25;;;2.05;85.97
74327;BME280;62745;51.060;13.786;2022-12-10T11:03:54;99483.16;;;2.05;85.81
74327;BME280;62745;51.060;13.786;2022-12-10T11:06:20;99477.59;;;2.08;86.09
74327;BME280;62745;51.060;13.786;2022-12-10T11:08:46;99473.47;;;2.14;85.52
74327;BME280;62745;51.060;13.786;2022-12-10T11:11:19;99481.03;;;2.08;85.31
74327;BME280;62745;51.060;13.786;2022-12-10T11:13:45;99484.09;;;1.96;86.58
74327;BME280;62745;51.060;13.786;2022-12-10T11:18:52;99482.56;;;1.85;86.29
74327;BME280;62745;51.060;13.786;2022-12-10T11:21:20;99478.00;;;1.95;85.99
74327;BME280;62745;51.060;13.786;2022-12-10T11:23:54;99480.47;;;2.23;85.82
74327;BME280;62745;51.060;13.786;2022-12-10T11:26:41;99477.75;;;2.06;85.73
74327;BME280;62745;51.060;13.786;2022-12-10T11:32:43;99488.94;;;2.08;85.46
74327;BME280;62745;51.060;13.786;2022-12-10T11:35:19;99484.66;;;2.07;85.69
74327;BME280;62745;51.060;13.786;2022-12-10T11:38:15;99481.78;;;2.27;85.89
74327;BME280;62745;51.060;13.786;2022-12-10T11:40:51;99477.91;;;2.05;85.18
74327;BME280;62745;51.060;13.786;2022-12-10T11:43:54;99480.59;;;1.87;85.71
74327;BME280;62745;51.060;13.786;2022-12-10T11:57:43;99481.88;;;2.17;85.84
74327;BME280;62745;51.060;13.786;2022-12-10T12:00:24;99481.47;;;1.96;86.43
74327;BME280;62745;51.060;13.786;2022-12-10T12:06:00;99488.53;;;1.95;85.93
74327;BME280;62745;51.060;13.786;2022-12-10T12:14:25;99489.59;;;1.85;86.43
74327;BME280;62745;51.060;13.786;2022-12-10T12:17:08;99491.41;;;1.84;86.16
74327;BME280;62745;51.060;13.786;2022-12-10T12:19:47;99490.16;;;1.88;85.83
74327;BME280;62745;51.060;13.786;2022-12-10T12:22:21;99490.31;;;1.87;87.49
74327;BME280;62745;51.060;13.786;2022-12-10T12:24:48;99480.75;;;1.86;86.66
74327;BME280;62745;51.060;13.786;2022-12-10T12:27:24;99486.94;;;1.76;86.66
74327;BME280;62745;51.060;13.786;2022-12-10T12:30:00;99490.06;;;1.80;86.32
74327;BME280;62745;51.060;13.786;2022-12-10T12:32:35;99483.31;;;1.77;86.13
74327;BME280;62745;51.060;13.786;2022-12-10T12:35:10;99486.13;;;1.76;86.28
74327;BME280;62745;51.060;13.786;2022-12-10T12:38:03;99480.06;;;1.84;86.75
74327;BME280;62745;51.060;13.786;2022-12-10T12:41:10;99477.19;;;1.69;86.21
74327;BME280;62745;51.060;13.786;2022-12-10T12:43:51;99483.63;;;1.74;87.08
74327;BME280;62745;51.060;13.786;2022-12-10T12:46:27;99484.47;;;1.75;86.18
74327;BME280;62745;51.060;13.786;2022-12-10T12:49:02;99475.41;;;1.77;86.03
74327;BME280;62745;51.060;13.786;2022-12-10T12:51:40;99475.66;;;1.66;86.49
74327;BME280;62745;51.060;13.786;2022-12-10T12:54:13;99473.56;;;1.70;85.67
74327;BME280;62745;51.060;13.786;2022-12-10T13:01:57;99484.81;;;1.80;85.77
74327;BME280;62745;51.060;13.786;2022-12-10T13:04:24;99471.22;;;1.67;86.13
74327;BME280;62745;51.060;13.786;2022-12-10T13:07:26;99487.41;;;1.72;86.02
74327;BME280;62745;51.060;13.786;2022-12-10T13:12:50;99483.50;;;1.84;86.23
74327;BME280;62745;51.060;13.786;2022-12-10T13:15:35;99493.03;;;1.77;86.17
74327;BME280;62745;51.060;13.786;2022-12-10T13:25:40;99502.22;;;1.73;86.15
74327;BME280;62745;51.060;13.786;2022-12-10T13:36:27;99504.84;;;1.99;85.44
74327;BME280;62745;51.060;13.786;2022-12-10T13:41:40;99512.91;;;1.97;86.48
74327;BME280;62745;51.060;13.786;2022-12-10T13:44:50;99511.78;;;1.74;87.63
74327;BME280;62745;51.060;13.786;2022-12-10T13:50:12;99517.63;;;1.86;86.19
74327;BME280;62745;51.060;13.786;2022-12-10T13:53:14;99518.56;;;1.59;87.29
74327;BME280;62745;51.060;13.786;2022-12-10T13:56:02;99521.63;;;1.72;87.06
74327;BME280;62745;51.060;13.786;2022-12-10T14:01:16;99526.78;;;1.81;86.96
74327;BME280;62745;51.060;13.786;2022-12-10T14:04:17;99532.25;;;1.62;87.74
74327;BME280;62745;51.060;13.786;2022-12-10T14:06:47;99535.63;;;1.72;86.99
74327;BME280;62745;51.060;13.786;2022-12-10T14:09:24;99533.44;;;1.68;87.11
74327;BME280;62745;51.060;13.786;2022-12-10T14:11:58;99535.66;;;1.80;86.11
74327;BME280;62745;51.060;13.786;2022-12-10T14:14:34;99527.91;;;1.53;86.65
74327;BME280;62745;51.060;13.786;2022-12-10T14:17:04;99531.53;;;1.52;87.12
74327;BME280;62745;51.060;13.786;2022-12-10T14:19:30;99529.84;;;1.51;87.53
74327;BME280;62745;51.060;13.786;2022-12-10T14:21:56;99535.78;;;1.71;85.73
74327;BME280;62745;51.060;13.786;2022-12-10T14:24:36;99534.28;;;1.50;85.41
74327;BME280;62745;51.060;13.786;2022-12-10T14:27:17;99531.22;;;1.37;87.11
74327;BME280;62745;51.060;13.786;2022-12-10T14:30:14;99542.31;;;1.67;85.95
74327;BME280;62745;51.060;13.786;2022-12-10T14:32:40;99537.81;;;1.41;87.68
74327;BME280;62745;51.060;13.786;2022-12-10T14:35:12;99540.63;;;1.40;86.39
74327;BME280;62745;51.060;13.786;2022-12-10T14:37:40;99539.28;;;1.36;87.66
74327;BME280;62745;51.060;13.786;2022-12-10T14:40:07;99530.56;;;1.35;86.32
74327;BME280;62745;51.060;13.786;2022-12-10T14:42:33;99547.75;;;1.47;86.03
74327;BME280;62745;51.060;13.786;2022-12-10T14:45:02;99546.56;;;1.42;86.81